Time;durP1;ratioP1;P1;durP2;ratioP2;P2;SDS_P1;SDS_P2;PMS_P1;PMS_P2;Temp;Humidity;BMP_temperature;BMP_pressure;BME280_temperature;BME280_humidity;BME280_pressure;Samples;Min_cycle;Max_cycle;Signal;HPM_P1;HPM_P2
2023/07/24 00:00:41;;;;;;;;;;;;;;;-144.99;100.00;52305.41;5002537;28;19926;-66
2023/07/24 00:03:08;;;;;;;;;;;;;;;-144.99;100.00;52276.88;4999387;28;20003;-68
2023/07/24 00:05:35;;;;;;;;;;;;;;;-144.99;100.00;52297.25;5010413;28;19968;-67
2023/07/24 00:08:02;;;;;;;;;;;;;;;-144.99;100.00;52333.94;5011098;28;20383;-67
2023/07/24 00:10:30;;;;;;;;;;;;;;;-144.99;100.00;52309.50;5011044;28;20402;-68
2023/07/24 00:12:57;;;;;;;;;;;;;;;-144.99;100.00;52313.56;5008521;28;19934;-68
2023/07/24 00:15:23;;;;;;;;;;;;;;;-144.99;100.00;52309.50;5010598;28;20413;-65
2023/07/24 00:17:50;;;;;;;;;;;;;;;-144.99;100.00;52327.84;5010980;28;19930;-66
2023/07/24 00:20:17;;;;;;;;;;;;;;;-144.99;100.00;52323.75;5009950;28;19933;-66
2023/07/24 00:22:43;;;;;;;;;;;;;;;-144.99;100.00;52313.56;5007775;28;19985;-66
2023/07/24 00:25:10;;;;;;;;;;;;;;;-144.99;100.00;52338.03;5003299;28;19932;-66
2023/07/24 00:27:38;;;;;;;;;;;;;;;-144.99;100.00;52291.16;5010690;28;19930;-67
2023/07/24 00:30:05;;;;;;;;;;;;;;;-144.99;100.00;52321.72;5010419;28;19929;-67
2023/07/24 00:32:31;;;;;;;;;;;;;;;-144.99;100.00;52317.66;5016872;28;19930;-66
2023/07/24 00:34:58;;;;;;;;;;;;;;;-144.99;100.00;52329.88;5009443;28;20457;-66
2023/07/24 00:37:25;;;;;;;;;;;;;;;-144.99;100.00;52333.94;5004231;28;19929;-66
2023/07/24 00:39:51;;;;;;;;;;;;;;;-144.99;100.00;52360.44;5010268;28;19930;-65
2023/07/24 00:42:18;;;;;;;;;;;;;;;-144.99;100.00;52313.56;5010467;28;19948;-64
2023/07/24 00:44:46;;;;;;;;;;;;;;;-144.99;100.00;52342.09;5008015;28;20402;-65
2023/07/24 00:47:13;;;;;;;;;;;;;;;-144.99;100.00;52333.94;5010448;28;19930;-65
2023/07/24 00:49:39;;;;;;;;;;;;;;;-144.99;100.00;52305.41;4999673;28;19933;-66
2023/07/24 00:52:06;;;;;;;;;;;;;;;-144.99;100.00;52313.56;5008166;28;19926;-66
2023/07/24 00:54:33;;;;;;;;;;;;;;;-144.99;100.00;52278.91;5008519;28;19933;-66
2023/07/24 00:57:00;;;;;;;;;;;;;;;-144.99;100.00;52321.72;5010419;28;20020;-65
2023/07/24 00:59:27;;;;;;;;;;;;;;;-144.99;100.00;52315.59;5009601;28;19933;-66
2023/07/24 01:01:55;;;;;;;;;;;;;;;-144.99;100.00;52366.56;5006656;28;19940;-67
2023/07/24 01:04:22;;;;;;;;;;;;;;;-144.99;100.00;52313.56;4992546;28;19929;-66
2023/07/24 01:06:50;;;;;;;;;;;;;;;-144.99;100.00;52309.50;5010125;28;19926;-66
2023/07/24 01:09:16;;;;;;;;;;;;;;;-144.99;100.00;52350.25;5010205;28;19944;-64
2023/07/24 01:11:45;;;;;;;;;;;;;;;-144.99;100.00;52301.34;5008542;28;19945;-65
2023/07/24 01:14:18;;;;;;;;;;;;;;;-144.99;100.00;52280.97;5009351;28;19932;-65
2023/07/24 01:16:45;;;;;;;;;;;;;;;-144.99;100.00;52309.50;5005326;28;19976;-65
2023/07/24 01:19:17;;;;;;;;;;;;;;;-144.99;100.00;52321.72;5015542;28;19936;-65
2023/07/24 01:21:51;;;;;;;;;;;;;;;-144.99;100.00;52272.81;5008413;28;19993;-66
2023/07/24 01:24:24;;;;;;;;;;;;;;;-144.99;100.00;52325.81;5009048;28;19937;-66
2023/07/24 01:26:53;;;;;;;;;;;;;;;-144.99;100.00;52333.94;5010738;28;19926;-64
2023/07/24 01:29:19;;;;;;;;;;;;;;;-144.99;100.00;52285.03;5000955;28;20244;-63
2023/07/24 01:31:46;;;;;;;;;;;;;;;-144.99;100.00;52309.50;5009243;28;20294;-63
2023/07/24 01:34:13;;;;;;;;;;;;;;;-144.99;100.00;52280.97;5008781;28;19934;-66
2023/07/24 01:36:39;;;;;;;;;;;;;;;-144.99;100.00;52313.56;5009119;28;19944;-66
2023/07/24 01:39:07;;;;;;;;;;;;;;;-144.99;100.00;52327.84;5009665;28;19944;-66
2023/07/24 01:41:33;;;;;;;;;;;;;;;-144.99;100.00;52338.03;5009365;28;20033;-69
2023/07/24 01:44:01;;;;;;;;;;;;;;;-144.99;100.00;52333.94;5008767;28;19925;-71
2023/07/24 01:46:28;;;;;;;;;;;;;;;-144.99;100.00;52293.19;5009784;28;19929;-69
2023/07/24 01:48:54;;;;;;;;;;;;;;;-144.99;100.00;52293.19;5004710;28;19933;-69
2023/07/24 01:51:21;;;;;;;;;;;;;;;-144.99;100.00;52309.50;5004527;28;19930;-70
2023/07/24 01:53:48;;;;;;;;;;;;;;;-144.99;100.00;52305.41;5009810;28;20153;-69
2023/07/24 01:56:14;;;;;;;;;;;;;;;-144.99;100.00;52354.34;5005678;28;19926;-69
2023/07/24 01:58:41;;;;;;;;;;;;;;;-144.99;100.00;52325.81;5008918;28;20394;-69
2023/07/24 02:01:09;;;;;;;;;;;;;;;-144.99;100.00;52325.81;5006401;28;19929;-69
2023/07/24 02:03:36;;;;;;;;;;;;;;;-144.99;100.00;52344.16;5008434;28;19926;-66
2023/07/24 02:06:02;;;;;;;;;;;;;;;-144.99;100.00;52301.34;5009424;28;19965;-67
2023/07/24 02:08:29;;;;;;;;;;;;;;;-144.99;100.00;52374.72;5000473;28;20401;-67
2023/07/24 02:10:55;;;;;;;;;;;;;;;-144.99;100.00;52305.41;5007717;28;20237;-67
2023/07/24 02:13:22;;;;;;;;;;;;;;;-144.99;100.00;52297.25;5008196;28;20225;-65
2023/07/24 02:15:49;;;;;;;;;;;;;;;-144.99;100.00;52321.72;5009206;28;19930;-70
2023/07/24 02:18:17;;;;;;;;;;;;;;;-144.99;100.00;52366.56;5009651;28;19929;-63
2023/07/24 02:20:49;;;;;;;;;;;;;;;-144.99;100.00;52333.94;5009120;28;19925;-65
2023/07/24 02:23:15;;;;;;;;;;;;;;;-144.99;100.00;52333.94;5000494;28;20394;-65
2023/07/24 02:25:42;;;;;;;;;;;;;;;-144.99;100.00;52301.34;5000670;28;19937;-66
2023/07/24 02:28:09;;;;;;;;;;;;;;;-144.99;100.00;52317.66;5008794;28;19932;-66
2023/07/24 02:30:38;;;;;;;;;;;;;;;-144.99;100.00;52289.13;5008665;28;20307;-65
2023/07/24 02:33:05;;;;;;;;;;;;;;;-144.99;100.00;52305.41;5008680;28;19937;-65
2023/07/24 02:35:33;;;;;;;;;;;;;;;-144.99;100.00;52293.19;5004894;28;19952;-66
2023/07/24 02:37:59;;;;;;;;;;;;;;;-144.99;100.00;52317.66;4999316;28;20045;-65
2023/07/24 02:40:26;;;;;;;;;;;;;;;-144.99;100.00;52285.03;5006191;28;19929;-66
2023/07/24 02:42:52;;;;;;;;;;;;;;;-144.99;100.00;52319.69;5003787;28;20280;-66
2023/07/24 02:45:19;;;;;;;;;;;;;;;-144.99;100.00;52321.72;5008972;28;19929;-66
2023/07/24 02:47:45;;;;;;;;;;;;;;;-144.99;100.00;52285.03;4998817;28;19926;-64
2023/07/24 02:50:12;;;;;;;;;;;;;;;-144.99;100.00;52350.25;5005093;28;19929;-64
2023/07/24 02:52:40;;;;;;;;;;;;;;;-144.99;100.00;52289.13;5005574;28;19936;-66
2023/07/24 02:55:07;;;;;;;;;;;;;;;-144.99;100.00;52338.03;5007872;28;19926;-66
2023/07/24 02:57:34;;;;;;;;;;;;;;;-144.99;100.00;52342.09;5007625;28;19925;-65
2023/07/24 03:00:00;;;;;;;;;;;;;;;-144.99;100.00;52325.81;5007310;28;19979;-66
2023/07/24 03:02:27;;;;;;;;;;;;;;;-144.99;100.00;52346.19;5007327;28;20383;-66
2023/07/24 03:04:53;;;;;;;;;;;;;;;-144.99;100.00;52311.53;5011268;28;19934;-66
2023/07/24 03:07:20;;;;;;;;;;;;;;;-144.99;100.00;52321.72;5008462;28;19926;-67
2023/07/24 03:09:48;;;;;;;;;;;;;;;-144.99;100.00;52354.34;5004887;28;19960;-67
2023/07/24 03:12:15;;;;;;;;;;;;;;;-144.99;100.00;52321.72;5005920;28;20563;-67
2023/07/24 03:14:41;;;;;;;;;;;;;;;-144.99;100.00;52338.03;5007387;28;19941;-63
2023/07/24 03:17:08;;;;;;;;;;;;;;;-144.99;100.00;52301.34;5007927;28;19936;-64
2023/07/24 03:19:35;;;;;;;;;;;;;;;-144.99;100.00;52315.59;5008106;28;20298;-64
2023/07/24 03:22:01;;;;;;;;;;;;;;;-144.99;100.00;52329.88;5007569;28;19925;-66
2023/07/24 03:24:28;;;;;;;;;;;;;;;-144.99;100.00;52309.50;5005197;28;19929;-64
2023/07/24 03:26:55;;;;;;;;;;;;;;;-144.99;100.00;52358.41;5005790;28;19929;-63
2023/07/24 03:29:22;;;;;;;;;;;;;;;-144.99;100.00;52329.88;5003098;28;20371;-64
2023/07/24 03:31:48;;;;;;;;;;;;;;;-144.99;100.00;52305.41;5004437;28;19944;-64
2023/07/24 03:34:15;;;;;;;;;;;;;;;-144.99;100.00;52313.56;4999654;28;20421;-64
2023/07/24 03:36:42;;;;;;;;;;;;;;;-144.99;100.00;52297.25;5007113;28;19934;-64
2023/07/24 03:39:10;;;;;;;;;;;;;;;-144.99;100.00;52315.59;5008106;28;19925;-64
2023/07/24 03:41:36;;;;;;;;;;;;;;;-144.99;100.00;52309.50;5003099;28;20373;-62
2023/07/24 03:44:04;;;;;;;;;;;;;;;-144.99;100.00;52338.03;5007056;28;19933;-61
2023/07/24 03:46:32;;;;;;;;;;;;;;;-144.99;100.00;52301.34;5007018;28;20005;-61
2023/07/24 03:48:59;;;;;;;;;;;;;;;-144.99;100.00;52303.38;5004654;28;19933;-62
2023/07/24 03:51:26;;;;;;;;;;;;;;;-144.99;100.00;52325.81;4997753;28;19926;-62
2023/07/24 03:53:52;;;;;;;;;;;;;;;-144.99;100.00;52315.59;5004605;28;19937;-62
2023/07/24 03:56:19;;;;;;;;;;;;;;;-144.99;100.00;52293.19;5003220;28;19929;-61
2023/07/24 03:58:46;;;;;;;;;;;;;;;-144.99;100.00;52329.88;5007326;28;19929;-62
2023/07/24 04:01:14;;;;;;;;;;;;;;;-144.99;100.00;52317.66;5007148;28;20336;-61
2023/07/24 04:03:40;;;;;;;;;;;;;;;-144.99;100.00;52338.03;5007239;28;19929;-62
2023/07/24 04:06:07;;;;;;;;;;;;;;;-144.99;100.00;52264.66;5004611;28;19977;-67
2023/07/24 04:08:33;;;;;;;;;;;;;;;-144.99;100.00;52305.41;5004954;28;19925;-61
2023/07/24 04:11:00;;;;;;;;;;;;;;;-144.99;100.00;52350.25;5008394;28;19933;-61
2023/07/24 04:13:27;;;;;;;;;;;;;;;-144.99;100.00;52325.81;5006893;28;20362;-59
2023/07/24 04:15:54;;;;;;;;;;;;;;;-144.99;100.00;52293.19;5002051;28;19941;-61
2023/07/24 04:18:22;;;;;;;;;;;;;;;-144.99;100.00;52287.06;5008925;28;19930;-61
2023/07/24 04:20:48;;;;;;;;;;;;;;;-144.99;100.00;52305.41;5004323;28;19937;-61
2023/07/24 04:23:15;;;;;;;;;;;;;;;-144.99;100.00;52313.56;5008421;28;19936;-61
2023/07/24 04:25:42;;;;;;;;;;;;;;;-144.99;100.00;52299.31;5009749;28;19933;-65
2023/07/24 04:28:08;;;;;;;;;;;;;;;-144.99;100.00;52280.97;5009825;28;20428;-63
2023/07/24 04:30:35;;;;;;;;;;;;;;;-144.99;100.00;52309.50;5006097;28;19932;-64
2023/07/24 04:33:01;;;;;;;;;;;;;;;-144.99;100.00;52321.72;5010799;28;20367;-63
2023/07/24 04:35:29;;;;;;;;;;;;;;;-144.99;100.00;52313.56;5009095;28;19984;-64
2023/07/24 04:37:57;;;;;;;;;;;;;;;-144.99;100.00;52313.56;5000802;28;19936;-65
2023/07/24 04:40:23;;;;;;;;;;;;;;;-144.99;100.00;52333.94;5001198;28;19984;-64
2023/07/24 04:42:50;;;;;;;;;;;;;;;-144.99;100.00;52309.50;5010439;28;20178;-64
2023/07/24 04:45:17;;;;;;;;;;;;;;;-144.99;100.00;52317.66;5007797;28;19964;-64
2023/07/24 04:47:43;;;;;;;;;;;;;;;-144.99;100.00;52321.72;5009412;28;20387;-64
2023/07/24 04:50:10;;;;;;;;;;;;;;;-144.99;100.00;52311.53;5006285;28;19926;-64
2023/07/24 04:52:38;;;;;;;;;;;;;;;-144.99;100.00;52325.81;5009730;28;19938;-64
2023/07/24 04:55:05;;;;;;;;;;;;;;;-144.99;100.00;52329.88;5013541;28;19925;-65
2023/07/24 04:57:32;;;;;;;;;;;;;;;-144.99;100.00;52323.75;5007334;28;20006;-64
2023/07/24 04:59:59;;;;;;;;;;;;;;;-144.99;100.00;52354.34;5009831;28;19925;-73
2023/07/24 05:02:25;;;;;;;;;;;;;;;-144.99;100.00;52315.59;5010304;28;20418;-69
2023/07/24 05:04:52;;;;;;;;;;;;;;;-144.99;100.00;52325.81;5009674;28;19932;-68
2023/07/24 05:07:18;;;;;;;;;;;;;;;-144.99;100.00;52321.72;5007617;28;19936;-70
2023/07/24 05:09:47;;;;;;;;;;;;;;;-144.99;100.00;52307.47;5006689;28;20467;-70
2023/07/24 05:12:13;;;;;;;;;;;;;;;-144.99;100.00;52313.56;5003916;28;20336;-76
2023/07/24 05:14:40;;;;;;;;;;;;;;;-144.99;100.00;52346.19;5017235;28;19925;-75
2023/07/24 05:17:06;;;;;;;;;;;;;;;-144.99;100.00;52291.16;4314482;28;10000707;-73
2023/07/24 05:19:33;;;;;;;;;;;;;;;-144.99;100.00;52305.41;5006180;28;19936;-75
2023/07/24 05:22:00;;;;;;;;;;;;;;;-144.99;100.00;52301.34;4998779;28;19944;-76
2023/07/24 05:24:26;;;;;;;;;;;;;;;-144.99;100.00;52321.72;5005739;28;20406;-76
2023/07/24 05:26:54;;;;;;;;;;;;;;;-144.99;100.00;52309.50;5007053;28;20366;-76
2023/07/24 05:29:21;;;;;;;;;;;;;;;-144.99;100.00;52344.16;5006628;28;19930;-76
2023/07/24 05:31:48;;;;;;;;;;;;;;;-144.99;100.00;52327.84;5002362;28;19925;-76
2023/07/24 05:34:14;;;;;;;;;;;;;;;-144.99;100.00;52305.41;5002242;28;20134;-75
2023/07/24 05:36:41;;;;;;;;;;;;;;;-144.99;100.00;52325.81;5003864;28;19929;-75
2023/07/24 05:39:08;;;;;;;;;;;;;;;-144.99;100.00;52317.66;5007470;28;19933;-75
2023/07/24 05:41:34;;;;;;;;;;;;;;;-144.99;100.00;52307.47;5004792;28;19938;-76
2023/07/24 05:44:03;;;;;;;;;;;;;;;-144.99;100.00;52293.19;5008010;28;19929;-75
2023/07/24 05:46:29;;;;;;;;;;;;;;;-144.99;100.00;52293.19;5007745;28;19929;-75
2023/07/24 05:48:56;;;;;;;;;;;;;;;-144.99;100.00;52329.88;5007769;28;19933;-75
2023/07/24 05:51:23;;;;;;;;;;;;;;;-144.99;100.00;52297.25;5006510;28;19925;-75
2023/07/24 05:53:50;;;;;;;;;;;;;;;-144.99;100.00;52305.41;5006624;28;20244;-76
2023/07/24 05:56:17;;;;;;;;;;;;;;;-144.99;100.00;52329.88;5007349;28;19933;-76
2023/07/24 05:58:44;;;;;;;;;;;;;;;-144.99;100.00;52291.16;5009166;28;20291;-77
2023/07/24 06:01:12;;;;;;;;;;;;;;;-144.99;100.00;52309.50;5004500;28;19929;-75
2023/07/24 06:03:39;;;;;;;;;;;;;;;-144.99;100.00;52264.66;5010022;28;19940;-76
2023/07/24 06:06:05;;;;;;;;;;;;;;;-144.99;100.00;52299.31;5008415;28;19987;-74
2023/07/24 06:08:32;;;;;;;;;;;;;;;-144.99;100.00;52313.56;5013072;28;19929;-76
2023/07/24 06:10:59;;;;;;;;;;;;;;;-144.99;100.00;52297.25;4998071;28;19988;-73
2023/07/24 06:13:25;;;;;;;;;;;;;;;-144.99;100.00;52307.47;5010111;28;20518;-77
2023/07/24 06:15:53;;;;;;;;;;;;;;;-144.99;100.00;52309.50;5008253;28;19929;-74
2023/07/24 06:18:21;;;;;;;;;;;;;;;-144.99;100.00;52313.56;5013436;28;19935;-74
2023/07/24 06:20:49;;;;;;;;;;;;;;;-144.99;100.00;52338.03;5007735;28;19983;-76
2023/07/24 06:23:16;;;;;;;;;;;;;;;-144.99;100.00;52260.56;5011834;28;20096;-76
2023/07/24 06:25:43;;;;;;;;;;;;;;;-144.99;99.86;52305.41;5009818;28;19929;-75
2023/07/24 06:28:10;;;;;;;;;;;;;;;-144.99;99.36;52317.66;5008502;28;19936;-75
2023/07/24 06:30:36;;;;;;;;;;;;;;;-144.99;99.94;52301.34;5002941;28;20045;-76
2023/07/24 06:33:03;;;;;;;;;;;;;;;-144.99;99.38;52276.88;5009783;28;19936;-76
2023/07/24 06:35:31;;;;;;;;;;;;;;;-144.99;98.84;52285.03;5006489;28;20339;-76
2023/07/24 06:37:58;;;;;;;;;;;;;;;-144.99;98.33;52309.50;5002008;28;19926;-74
2023/07/24 06:40:24;;;;;;;;;;;;;;;-144.99;98.43;52301.34;5009437;28;19933;-75
2023/07/24 06:42:52;;;;;;;;;;;;;;;-144.99;98.53;52317.66;5004798;28;19929;-76
2023/07/24 06:45:19;;;;;;;;;;;;;;;-144.99;98.67;52289.13;5008338;28;19941;-76
2023/07/24 06:47:46;;;;;;;;;;;;;;;-144.99;98.77;52317.66;5005869;28;19982;-75
2023/07/24 06:50:12;;;;;;;;;;;;;;;-144.99;98.50;52313.56;5007720;28;19937;-75
2023/07/24 06:52:40;;;;;;;;;;;;;;;-144.99;99.13;52293.19;5008379;28;19929;-75
2023/07/24 06:55:07;;;;;;;;;;;;;;;-144.99;99.25;52329.88;5006240;28;20334;-75
2023/07/24 06:57:34;;;;;;;;;;;;;;;-144.99;98.50;52303.38;5006487;28;19937;-75
2023/07/24 07:00:00;;;;;;;;;;;;;;;-144.99;98.80;52293.19;5006485;28;19925;-74
2023/07/24 07:02:28;;;;;;;;;;;;;;;-144.99;98.92;52329.88;5006642;28;19936;-75
2023/07/24 07:04:55;;;;;;;;;;;;;;;-144.99;98.39;52301.34;5007034;28;19979;-75
2023/07/24 07:07:21;;;;;;;;;;;;;;;-144.99;98.57;52317.66;5007453;28;20021;-75
2023/07/24 07:09:49;;;;;;;;;;;;;;;-144.99;98.51;52293.19;5006792;28;19930;-75
2023/07/24 07:12:16;;;;;;;;;;;;;;;-144.99;98.77;52301.34;5014794;28;19933;-74
2023/07/24 07:14:43;;;;;;;;;;;;;;;-144.99;99.20;52297.25;5007061;28;20125;-75
2023/07/24 07:17:09;;;;;;;;;;;;;;;-144.99;98.55;52283.00;4992945;28;19933;-76
2023/07/24 07:19:37;;;;;;;;;;;;;;;-144.99;98.72;52323.75;4983352;28;19940;-75
2023/07/24 07:22:03;;;;;;;;;;;;;;;-144.99;97.83;52289.13;4996012;28;19930;-75
2023/07/24 07:24:30;;;;;;;;;;;;;;;-144.99;97.64;52329.88;5000242;28;20279;-75
2023/07/24 07:26:58;;;;;;;;;;;;;;;-144.99;97.46;52309.50;4997959;28;19941;-75
2023/07/24 07:29:25;;;;;;;;;;;;;;;-144.99;96.45;52325.81;5003757;28;19932;-75
2023/07/24 07:31:51;;;;;;;;;;;;;;;-144.99;96.88;52293.19;5004585;28;19926;-76
2023/07/24 07:34:18;;;;;;;;;;;;;;;-144.99;97.06;52293.19;5007149;28;19925;-76
2023/07/24 07:36:45;;;;;;;;;;;;;;;-144.99;96.20;52280.97;5008277;28;20027;-74
2023/07/24 07:39:12;;;;;;;;;;;;;;;-144.99;95.43;52280.97;5004508;28;19940;-74
2023/07/24 07:41:38;;;;;;;;;;;;;;;-144.99;95.01;52285.03;5005835;28;19937;-75
2023/07/24 07:44:06;;;;;;;;;;;;;;;-144.99;95.06;52309.50;4999187;28;20326;-74
2023/07/24 07:46:33;;;;;;;;;;;;;;;-144.99;94.81;52301.34;5000122;28;20406;-75
2023/07/24 07:49:00;;;;;;;;;;;;;;;-144.99;94.73;52293.19;5003510;28;19926;-74
2023/07/24 07:51:27;;;;;;;;;;;;;;;-144.99;94.34;52285.03;5003531;28;19933;-73
2023/07/24 07:53:53;;;;;;;;;;;;;;;-144.99;94.60;52240.19;5003724;28;20025;-74
2023/07/24 07:56:20;;;;;;;;;;;;;;;-144.99;94.22;52313.56;5008001;28;19925;-74
2023/07/24 07:58:47;;;;;;;;;;;;;;;-144.99;94.14;52287.06;5006040;28;20347;-74
2023/07/24 08:01:15;;;;;;;;;;;;;;;-144.99;93.31;52285.03;5009272;28;20342;-74
2023/07/24 08:03:41;;;;;;;;;;;;;;;-144.99;93.56;52313.56;4998327;28;20324;-74
2023/07/24 08:06:08;;;;;;;;;;;;;;;-144.99;94.04;52346.19;5004445;28;19940;-74
2023/07/24 08:08:35;;;;;;;;;;;;;;;-144.99;94.45;52297.25;5006774;28;19992;-74
2023/07/24 08:11:04;;;;;;;;;;;;;;;-144.99;94.05;52305.41;5006798;28;19968;-74
2023/07/24 08:13:31;;;;;;;;;;;;;;;-144.99;94.20;52289.13;5004633;28;19944;-73
2023/07/24 08:15:59;;;;;;;;;;;;;;;-144.99;94.50;52321.72;5002322;28;20044;-74
2023/07/24 08:18:27;;;;;;;;;;;;;;;-144.99;94.43;52309.50;5000433;28;19926;-74
2023/07/24 08:20:53;;;;;;;;;;;;;;;-144.99;94.25;52297.25;5007269;28;20357;-73
2023/07/24 08:23:20;;;;;;;;;;;;;;;-144.99;93.76;52289.13;5008802;28;19929;-74
2023/07/24 08:25:53;;;;;;;;;;;;;;;-144.99;92.95;52285.03;5007743;28;19936;-74
2023/07/24 08:28:20;;;;;;;;;;;;;;;-144.99;92.26;52260.56;5003395;28;19941;-73
2023/07/24 08:30:47;;;;;;;;;;;;;;;-144.99;91.90;52266.69;5006209;28;20028;-74
2023/07/24 08:33:14;;;;;;;;;;;;;;;-144.99;92.02;52278.91;5008355;28;19937;-73
2023/07/24 08:35:42;;;;;;;;;;;;;;;-144.99;91.43;52317.66;5006185;28;20306;-73
2023/07/24 08:38:08;;;;;;;;;;;;;;;-144.99;91.07;52272.81;5004827;28;19925;-73
2023/07/24 08:40:35;;;;;;;;;;;;;;;-144.99;91.07;52305.41;5003957;28;19940;-73
2023/07/24 08:43:02;;;;;;;;;;;;;;;-144.99;91.33;52287.06;4997757;28;19929;-73
2023/07/24 08:45:29;;;;;;;;;;;;;;;-144.99;91.19;52289.13;4999171;28;19926;-74
2023/07/24 08:47:56;;;;;;;;;;;;;;;-144.99;90.53;52301.34;5005848;28;20021;-74
2023/07/24 08:50:23;;;;;;;;;;;;;;;-144.99;90.83;52301.34;5006050;28;19937;-74
2023/07/24 08:52:51;;;;;;;;;;;;;;;-144.99;90.39;52280.97;5016063;28;20115;-74
2023/07/24 08:55:18;;;;;;;;;;;;;;;-144.99;90.25;52309.50;5008979;28;20482;-74
2023/07/24 08:57:45;;;;;;;;;;;;;;;-144.99;90.00;52293.19;5006936;28;19952;-74
2023/07/24 09:00:12;;;;;;;;;;;;;;;-144.99;90.07;52321.72;4996909;28;19932;-74
2023/07/24 09:02:39;;;;;;;;;;;;;;;-144.99;90.74;52305.41;5007391;28;19929;-75
2023/07/24 09:05:06;;;;;;;;;;;;;;;-144.99;91.00;52313.56;5008512;28;19934;-74
2023/07/24 09:07:33;;;;;;;;;;;;;;;-144.99;90.72;52250.38;5005991;28;19937;-74
2023/07/24 09:10:01;;;;;;;;;;;;;;;-144.99;90.16;52309.50;4996379;28;19929;-74
2023/07/24 09:12:27;;;;;;;;;;;;;;;-144.99;89.87;52276.88;4999568;28;20098;-73
2023/07/24 09:15:03;;;;;;;;;;;;;;;-144.99;89.50;52268.72;5006623;28;19948;-74
2023/07/24 09:17:30;;;;;;;;;;;;;;;-144.99;89.04;52272.81;5004362;28;19937;-75
2023/07/24 09:19:58;;;;;;;;;;;;;;;-144.99;87.83;52260.56;5006943;28;20313;-75
2023/07/24 09:22:26;;;;;;;;;;;;;;;-144.99;87.73;52264.66;5005807;28;20018;-74
2023/07/24 09:24:53;;;;;;;;;;;;;;;-144.99;86.32;52252.44;5014235;28;20383;-74
2023/07/24 09:27:22;;;;;;;;;;;;;;;-144.99;85.72;52293.19;5015327;28;20330;-74
2023/07/24 09:29:49;;;;;;;;;;;;;;;-144.99;85.93;52270.78;5005106;28;20452;-74
2023/07/24 09:32:22;;;;;;;;;;;;;;;-144.99;85.63;52276.88;5003108;28;19929;-75
2023/07/24 09:34:50;;;;;;;;;;;;;;;-144.99;85.36;52301.34;4994044;28;19937;-75
2023/07/24 09:37:24;;;;;;;;;;;;;;;-144.99;85.19;52305.41;5010163;28;19937;-74
2023/07/24 09:39:50;;;;;;;;;;;;;;;-144.99;84.81;52297.25;5000021;28;19945;-74
2023/07/24 09:42:17;;;;;;;;;;;;;;;-144.99;85.37;52219.81;5003882;28;20202;-74
2023/07/24 09:44:45;;;;;;;;;;;;;;;-144.99;82.41;52219.81;5004432;28;20016;-74
2023/07/24 09:47:12;;;;;;;;;;;;;;;-144.99;79.94;52260.56;5008738;28;19929;-76
2023/07/24 09:49:39;;;;;;;;;;;;;;;-144.99;78.60;52234.09;5004245;28;20208;-75
2023/07/24 09:52:10;;;;;;;;;;;;;;;-144.99;78.07;52248.34;5003300;28;19936;-75
2023/07/24 09:54:40;;;;;;;;;;;;;;;-144.99;77.78;52244.28;5003042;28;19973;-75
2023/07/24 09:57:08;;;;;;;;;;;;;;;-144.99;77.82;52270.78;5004487;28;19936;-75
2023/07/24 09:59:36;;;;;;;;;;;;;;;-144.99;77.21;52240.19;5000461;28;20005;-75
2023/07/24 10:02:04;;;;;;;;;;;;;;;-144.99;78.47;52276.88;5006235;28;20367;-75
2023/07/24 10:04:32;;;;;;;;;;;;;;;-144.99;79.51;52244.28;5000466;28;20016;-75
2023/07/24 10:06:59;;;;;;;;;;;;;;;-144.99;79.32;52211.66;5002507;28;19939;-75
2023/07/24 10:09:26;;;;;;;;;;;;;;;-144.99;78.25;52236.13;5005971;28;20624;-75
2023/07/24 10:11:53;;;;;;;;;;;;;;;-144.99;76.88;52248.34;5006025;28;19929;-75
2023/07/24 10:14:20;;;;;;;;;;;;;;;-144.99;76.93;52252.44;5006466;28;20401;-75
2023/07/24 10:16:46;;;;;;;;;;;;;;;-144.99;76.84;52317.66;5000057;28;20259;-75
2023/07/24 10:19:16;;;;;;;;;;;;;;;-144.99;77.45;52276.88;5006172;28;20303;-75
2023/07/24 10:21:45;;;;;;;;;;;;;;;-144.99;78.24;52276.88;5000470;28;20042;-75
2023/07/24 10:24:12;;;;;;;;;;;;;;;-144.99;78.56;52264.66;5009563;28;19948;-74
2023/07/24 10:26:39;;;;;;;;;;;;;;;-144.99;78.13;52276.88;4996691;28;19932;-74
2023/07/24 10:29:06;;;;;;;;;;;;;;;-144.99;78.66;52264.66;5005546;28;19933;-75
2023/07/24 10:31:33;;;;;;;;;;;;;;;-144.99;78.44;52207.59;4996412;28;19926;-76
2023/07/24 10:34:05;;;;;;;;;;;;;;;-144.99;75.51;52183.13;5004793;28;20255;-75
2023/07/24 10:36:35;;;;;;;;;;;;;;;-144.99;74.87;52236.13;5002252;28;20311;-75
2023/07/24 10:39:03;;;;;;;;;;;;;;;-144.99;72.65;52240.19;5002506;28;20180;-75
2023/07/24 10:41:35;;;;;;;;;;;;;;;-144.99;72.51;52181.09;5004988;28;20416;-75
2023/07/24 10:44:02;;;;;;;;;;;;;;;-144.99;72.62;52219.81;4996698;28;19929;-74
2023/07/24 10:46:36;;;;;;;;;;;;;;;-144.99;72.10;52248.34;5007491;28;19934;-74
2023/07/24 10:49:03;;;;;;;;;;;;;;;-144.99;72.68;52166.81;5003954;28;19933;-74
2023/07/24 10:51:32;;;;;;;;;;;;;;;-144.99;71.16;52183.13;5005990;28;20387;-74
2023/07/24 10:54:00;;;;;;;;;;;;;;;-144.99;70.39;52227.97;5007972;28;20040;-74
2023/07/24 10:56:27;;;;;;;;;;;;;;;-144.99;70.89;52276.88;5004571;28;20178;-74
2023/07/24 10:58:53;;;;;;;;;;;;;;;-144.99;71.08;52234.09;5008619;28;19936;-74
2023/07/24 11:01:20;;;;;;;;;;;;;;;-144.99;70.67;52134.22;5009272;28;19937;-73
2023/07/24 11:03:47;;;;;;;;;;;;;;;-144.99;70.11;52146.44;5007882;28;19925;-73
2023/07/24 11:06:15;;;;;;;;;;;;;;;-144.99;68.23;52130.13;5007133;28;20370;-74
2023/07/24 11:08:42;;;;;;;;;;;;;;;-144.99;67.82;52109.75;5004525;28;19929;-73
2023/07/24 11:11:11;;;;;;;;;;;;;;;-144.99;69.25;52203.50;5004868;28;20378;-73
2023/07/24 11:13:38;;;;;;;;;;;;;;;-144.99;68.61;52199.44;5007247;28;20032;-74
2023/07/24 11:16:06;;;;;;;;;;;;;;;-144.99;68.63;52097.53;5004971;28;19947;-74
2023/07/24 11:18:32;;;;;;;;;;;;;;;-144.99;67.90;52211.66;5005983;28;19929;-74
2023/07/24 11:20:59;;;;;;;;;;;;;;;-144.99;68.96;52227.97;5005603;28;19932;-74
2023/07/24 11:23:26;;;;;;;;;;;;;;;-144.99;69.34;52240.19;5004839;28;19953;-73
2023/07/24 11:25:53;;;;;;;;;;;;;;;-144.99;69.33;52242.22;4998531;28;19936;-74
2023/07/24 11:28:21;;;;;;;;;;;;;;;-144.99;69.66;52227.97;4993579;28;20029;-74
2023/07/24 11:30:48;;;;;;;;;;;;;;;-144.99;69.39;52203.50;5004026;28;19935;-74
2023/07/24 11:33:16;;;;;;;;;;;;;;;-144.99;68.34;52130.13;5006934;28;20024;-74
2023/07/24 11:35:43;;;;;;;;;;;;;;;-144.99;66.91;52158.66;5001863;28;19926;-74
2023/07/24 11:38:10;;;;;;;;;;;;;;;-144.99;66.88;52142.38;4998514;28;19929;-74
2023/07/24 11:40:39;;;;;;;;;;;;;;;-144.99;66.55;52260.56;5004994;28;19930;-74
2023/07/24 11:43:06;;;;;;;;;;;;;;;-144.99;67.25;52240.19;5004905;28;19929;-74
2023/07/24 11:45:42;;;;;;;;;;;;;;;-144.99;66.97;52142.38;5005278;28;20016;-74
2023/07/24 11:48:10;;;;;;;;;;;;;;;-144.99;67.43;52158.66;5001132;28;19968;-73
2023/07/24 11:50:42;;;;;;;;;;;;;;;-144.99;66.24;52207.59;5002968;28;19930;-74
2023/07/24 11:53:19;;;;;;;;;;;;;;;-144.99;66.79;52215.75;5005733;28;19929;-74
2023/07/24 11:55:45;;;;;;;;;;;;;;;-144.99;67.06;52146.44;5004480;28;19929;-72
2023/07/24 11:58:15;;;;;;;;;;;;;;;-144.99;67.58;52248.34;4999337;28;19929;-72
2023/07/24 12:00:43;;;;;;;;;;;;;;;-144.99;67.11;52211.66;5000902;28;19980;-72
2023/07/24 12:03:10;;;;;;;;;;;;;;;-144.99;66.38;52142.38;4989473;28;20008;-75
2023/07/24 12:05:39;;;;;;;;;;;;;;;-144.99;66.90;52195.34;5006584;28;19929;-74
2023/07/24 12:08:05;;;;;;;;;;;;;;;-144.99;66.80;52166.81;4999494;28;20550;-75
2023/07/24 12:10:32;;;;;;;;;;;;;;;-144.99;66.55;52211.66;5005668;28;19925;-75
2023/07/24 12:13:00;;;;;;;;;;;;;;;-144.99;65.31;52170.91;5007901;28;19977;-75
2023/07/24 12:15:26;;;;;;;;;;;;;;;-144.99;65.16;52119.94;5000528;28;19933;-74
2023/07/24 12:17:56;;;;;;;;;;;;;;;-144.99;65.08;52164.78;5004211;28;20207;-74
2023/07/24 12:20:23;;;;;;;;;;;;;;;-144.99;63.83;52130.13;5005669;28;19933;-75